sensor_id;sensor_type;location;lat;lon;timestamp;pressure;altitude;pressure_sealevel;temperature;humidity
14269;BME280;7218;51.480;7.006;2023-06-10T00:00:46;100102.81;;;18.97;69.06
14269;BME280;7218;51.480;7.006;2023-06-10T00:03:12;100097.69;;;18.94;69.34
14269;BME280;7218;51.480;7.006;2023-06-10T00:05:39;100105.94;;;18.88;69.90
14269;BME280;7218;51.480;7.006;2023-06-10T00:08:06;100104.34;;;18.70;70.41
14269;BME280;7218;51.480;7.006;2023-06-10T00:10:35;100108.44;;;18.75;71.14
14269;BME280;7218;51.480;7.006;2023-06-10T00:13:01;100105.38;;;18.67;71.40
14269;BME280;7218;51.480;7.006;2023-06-10T00:15:29;100106.38;;;18.65;72.01
14269;BME280;7218;51.480;7.006;2023-06-10T00:17:55;100104.59;;;18.65;71.64
14269;BME280;7218;51.480;7.006;2023-06-10T00:20:22;100107.56;;;18.59;72.00
14269;BME280;7218;51.480;7.006;2023-06-10T00:22:50;100102.69;;;18.52;72.14
14269;BME280;7218;51.480;7.006;2023-06-10T00:25:17;100098.13;;;18.55;72.28
14269;BME280;7218;51.480;7.006;2023-06-10T00:27:45;100096.25;;;18.57;72.61
14269;BME280;7218;51.480;7.006;2023-06-10T00:30:13;100099.06;;;18.54;72.51
14269;BME280;7218;51.480;7.006;2023-06-10T00:32:40;100097.19;;;18.56;72.52
14269;BME280;7218;51.480;7.006;2023-06-10T00:35:07;100093.63;;;18.57;72.54
14269;BME280;7218;51.480;7.006;2023-06-10T00:37:34;100102.78;;;18.50;72.57
14269;BME280;7218;51.480;7.006;2023-06-10T00:40:01;100101.78;;;18.53;72.84
14269;BME280;7218;51.480;7.006;2023-06-10T00:42:28;100097.66;;;18.47;73.07
14269;BME280;7218;51.480;7.006;2023-06-10T00:44:56;100103.47;;;18.38;73.73
14269;BME280;7218;51.480;7.006;2023-06-10T00:47:22;100113.22;;;18.36;73.83
14269;BME280;7218;51.480;7.006;2023-06-10T00:49:49;100116.19;;;18.30;73.84
14269;BME280;7218;51.480;7.006;2023-06-10T00:52:16;100125.22;;;18.26;74.03
14269;BME280;7218;51.480;7.006;2023-06-10T00:54:45;100122.47;;;18.12;75.36
14269;BME280;7218;51.480;7.006;2023-06-10T00:57:12;100112.59;;;18.15;74.76
14269;BME280;7218;51.480;7.006;2023-06-10T00:59:39;100108.47;;;18.10;75.40
14269;BME280;7218;51.480;7.006;2023-06-10T01:02:07;100113.72;;;17.94;76.33
14269;BME280;7218;51.480;7.006;2023-06-10T01:04:34;100115.34;;;17.96;75.67
14269;BME280;7218;51.480;7.006;2023-06-10T01:07:09;100108.38;;;17.95;76.39
14269;BME280;7218;51.480;7.006;2023-06-10T01:09:46;100111.16;;;17.92;76.53
14269;BME280;7218;51.480;7.006;2023-06-10T01:12:19;100112.16;;;17.90;75.88
14269;BME280;7218;51.480;7.006;2023-06-10T01:14:47;100106.34;;;17.83;76.73
14269;BME280;7218;51.480;7.006;2023-06-10T01:17:15;100114.81;;;17.90;76.00
14269;BME280;7218;51.480;7.006;2023-06-10T01:19:43;100113.28;;;17.86;76.64
14269;BME280;7218;51.480;7.006;2023-06-10T01:22:11;100116.22;;;17.80;77.20
14269;BME280;7218;51.480;7.006;2023-06-10T01:24:41;100116.91;;;17.83;76.72
14269;BME280;7218;51.480;7.006;2023-06-10T01:27:12;100112.66;;;17.81;76.69
14269;BME280;7218;51.480;7.006;2023-06-10T01:29:41;100121.25;;;17.84;76.30
14269;BME280;7218;51.480;7.006;2023-06-10T01:32:14;100116.59;;;17.89;76.05
14269;BME280;7218;51.480;7.006;2023-06-10T01:34:43;100116.53;;;17.91;75.29
14269;BME280;7218;51.480;7.006;2023-06-10T01:37:15;100120.31;;;17.85;75.94
14269;BME280;7218;51.480;7.006;2023-06-10T01:39:45;100122.34;;;17.80;75.81
14269;BME280;7218;51.480;7.006;2023-06-10T01:42:12;100116.44;;;17.75;76.18
14269;BME280;7218;51.480;7.006;2023-06-10T01:44:39;100119.16;;;17.74;76.36
14269;BME280;7218;51.480;7.006;2023-06-10T01:47:07;100116.63;;;17.72;76.20
14269;BME280;7218;51.480;7.006;2023-06-10T01:49:33;100119.41;;;17.69;76.83
14269;BME280;7218;51.480;7.006;2023-06-10T01:52:00;100116.69;;;17.71;76.26
14269;BME280;7218;51.480;7.006;2023-06-10T01:54:27;100116.63;;;17.72;76.45
14269;BME280;7218;51.480;7.006;2023-06-10T01:56:54;100119.41;;;17.69;76.85
14269;BME280;7218;51.480;7.006;2023-06-10T01:59:20;100125.69;;;17.67;76.74
14269;BME280;7218;51.480;7.006;2023-06-10T02:01:47;100123.75;;;17.70;76.34
14269;BME280;7218;51.480;7.006;2023-06-10T02:04:13;100123.38;;;17.60;77.71
14269;BME280;7218;51.480;7.006;2023-06-10T02:06:40;100125.53;;;17.70;77.20
14269;BME280;7218;51.480;7.006;2023-06-10T02:09:07;100127.78;;;17.60;77.58
14269;BME280;7218;51.480;7.006;2023-06-10T02:11:35;100127.66;;;17.63;77.48
14269;BME280;7218;51.480;7.006;2023-06-10T02:14:01;100121.72;;;17.58;78.10
14269;BME280;7218;51.480;7.006;2023-06-10T02:16:28;100131.28;;;17.60;77.72
14269;BME280;7218;51.480;7.006;2023-06-10T02:18:54;100134.19;;;17.54;78.35
14269;BME280;7218;51.480;7.006;2023-06-10T02:21:21;100127.59;;;17.46;78.83
14269;BME280;7218;51.480;7.006;2023-06-10T02:23:47;100131.63;;;17.36;79.63
14269;BME280;7218;51.480;7.006;2023-06-10T02:26:14;100130.69;;;17.37;79.82
14269;BME280;7218;51.480;7.006;2023-06-10T02:28:43;100135.56;;;17.44;79.51
14269;BME280;7218;51.480;7.006;2023-06-10T02:31:10;100143.72;;;17.40;79.84
14269;BME280;7218;51.480;7.006;2023-06-10T02:33:39;100128.91;;;17.37;80.02
14269;BME280;7218;51.480;7.006;2023-06-10T02:36:06;100125.88;;;17.28;80.60
14269;BME280;7218;51.480;7.006;2023-06-10T02:38:32;100127.94;;;17.21;81.12
14269;BME280;7218;51.480;7.006;2023-06-10T02:40:59;100125.38;;;17.19;81.14
14269;BME280;7218;51.480;7.006;2023-06-10T02:43:25;100122.75;;;17.19;81.78
14269;BME280;7218;51.480;7.006;2023-06-10T02:45:53;100125.59;;;17.15;82.05
14269;BME280;7218;51.480;7.006;2023-06-10T02:48:19;100130.03;;;17.14;82.04
14269;BME280;7218;51.480;7.006;2023-06-10T02:50:46;100130.97;;;17.13;81.72
14269;BME280;7218;51.480;7.006;2023-06-10T02:53:13;100135.53;;;17.10;82.73
14269;BME280;7218;51.480;7.006;2023-06-10T02:55:40;100131.34;;;17.06;82.62
14269;BME280;7218;51.480;7.006;2023-06-10T02:58:06;100126.91;;;17.06;82.84
14269;BME280;7218;51.480;7.006;2023-06-10T03:00:33;100125.66;;;16.96;83.51
14269;BME280;7218;51.480;7.006;2023-06-10T03:03:02;100125.44;;;17.01;83.21
14269;BME280;7218;51.480;7.006;2023-06-10T03:05:30;100126.09;;;16.87;84.26
14269;BME280;7218;51.480;7.006;2023-06-10T03:07:56;100130.34;;;16.90;84.12
14269;BME280;7218;51.480;7.006;2023-06-10T03:10:23;100124.44;;;16.85;84.12
14269;BME280;7218;51.480;7.006;2023-06-10T03:12:49;100128.16;;;16.81;84.68
14269;BME280;7218;51.480;7.006;2023-06-10T03:15:16;100132.09;;;16.72;85.12
14269;BME280;7218;51.480;7.006;2023-06-10T03:17:42;100126.81;;;16.72;85.54
14269;BME280;7218;51.480;7.006;2023-06-10T03:20:11;100129.56;;;16.69;85.56
14269;BME280;7218;51.480;7.006;2023-06-10T03:22:40;100130.81;;;16.62;86.10
14269;BME280;7218;51.480;7.006;2023-06-10T03:25:08;100136.72;;;16.67;86.11
14269;BME280;7218;51.480;7.006;2023-06-10T03:27:39;100138.44;;;16.68;85.93
14269;BME280;7218;51.480;7.006;2023-06-10T03:30:06;100135.00;;;16.66;86.14
14269;BME280;7218;51.480;7.006;2023-06-10T03:32:34;100129.72;;;16.66;85.78
14269;BME280;7218;51.480;7.006;2023-06-10T03:35:00;100137.00;;;16.61;86.11
14269;BME280;7218;51.480;7.006;2023-06-10T03:37:28;100140.41;;;16.63;86.50
14269;BME280;7218;51.480;7.006;2023-06-10T03:39:55;100137.78;;;16.63;86.46
14269;BME280;7218;51.480;7.006;2023-06-10T03:42:21;100140.41;;;16.63;85.97
14269;BME280;7218;51.480;7.006;2023-06-10T03:44:48;100138.94;;;16.56;86.55
14269;BME280;7218;51.480;7.006;2023-06-10T03:47:14;100133.69;;;16.56;86.43
14269;BME280;7218;51.480;7.006;2023-06-10T03:49:41;100145.00;;;16.58;86.22
14269;BME280;7218;51.480;7.006;2023-06-10T03:52:07;100140.41;;;16.63;85.96
14269;BME280;7218;51.480;7.006;2023-06-10T03:54:35;100142.03;;;16.65;86.49
14269;BME280;7218;51.480;7.006;2023-06-10T03:57:02;100144.69;;;16.65;86.00
14269;BME280;7218;51.480;7.006;2023-06-10T03:59:28;100146.16;;;16.71;85.74
14269;BME280;7218;51.480;7.006;2023-06-10T04:01:55;100147.25;;;16.67;85.88
14269;BME280;7218;51.480;7.006;2023-06-10T04:04:23;100146.16;;;16.71;85.54
14269;BME280;7218;51.480;7.006;2023-06-10T04:06:49;100150.00;;;16.64;85.73
14269;BME280;7218;51.480;7.006;2023-06-10T04:09:16;100158.75;;;16.64;85.59
14269;BME280;7218;51.480;7.006;2023-06-10T04:11:44;100154.06;;;16.71;85.21
14269;BME280;7218;51.480;7.006;2023-06-10T04:14:10;100152.72;;;16.62;84.85
14269;BME280;7218;51.480;7.006;2023-06-10T04:16:38;100156.22;;;16.63;85.28
14269;BME280;7218;51.480;7.006;2023-06-10T04:19:06;100153.38;;;16.67;84.76
14269;BME280;7218;51.480;7.006;2023-06-10T04:21:32;100160.34;;;16.68;84.41
14269;BME280;7218;51.480;7.006;2023-06-10T04:23:59;100164.44;;;16.74;83.54
14269;BME280;7218;51.480;7.006;2023-06-10T04:26:25;100153.78;;;16.77;84.20
14269;BME280;7218;51.480;7.006;2023-06-10T04:28:53;100156.16;;;16.83;83.60
14269;BME280;7218;51.480;7.006;2023-06-10T04:31:20;100158.78;;;16.83;83.20
14269;BME280;7218;51.480;7.006;2023-06-10T04:33:46;100162.06;;;16.88;82.17
14269;BME280;7218;51.480;7.006;2023-06-10T04:36:13;100169.53;;;16.97;82.12
14269;BME280;7218;51.480;7.006;2023-06-10T04:38:39;100162.38;;;16.99;81.27
14269;BME280;7218;51.480;7.006;2023-06-10T04:41:06;100168.38;;;17.03;80.79
14269;BME280;7218;51.480;7.006;2023-06-10T04:43:33;100168.59;;;16.98;81.04
14269;BME280;7218;51.480;7.006;2023-06-10T04:46:01;100171.94;;;17.02;81.01
14269;BME280;7218;51.480;7.006;2023-06-10T04:48:27;100169.72;;;17.11;80.80
14269;BME280;7218;51.480;7.006;2023-06-10T04:50:54;100170.00;;;17.05;80.45
14269;BME280;7218;51.480;7.006;2023-06-10T04:53:21;100165.38;;;17.10;80.96
14269;BME280;7218;51.480;7.006;2023-06-10T04:55:47;100170.28;;;17.18;79.67
14269;BME280;7218;51.480;7.006;2023-06-10T04:58:14;100168.81;;;17.30;79.28
14269;BME280;7218;51.480;7.006;2023-06-10T05:00:41;100163.09;;;17.39;79.20
14269;BME280;7218;51.480;7.006;2023-06-10T05:03:10;100171.22;;;17.34;78.56
14269;BME280;7218;51.480;7.006;2023-06-10T05:05:36;100162.44;;;17.34;77.92
14269;BME280;7218;51.480;7.006;2023-06-10T05:08:03;100165.59;;;17.42;78.17
14269;BME280;7218;51.480;7.006;2023-06-10T05:10:30;100165.53;;;17.43;78.01
14269;BME280;7218;51.480;7.006;2023-06-10T05:12:57;100161.06;;;17.44;77.67
14269;BME280;7218;51.480;7.006;2023-06-10T05:15:23;100167.13;;;17.46;78.08
14269;BME280;7218;51.480;7.006;2023-06-10T05:17:49;100167.84;;;17.49;77.56
14269;BME280;7218;51.480;7.006;2023-06-10T05:20:18;100167.38;;;17.58;77.15
14269;BME280;7218;51.480;7.006;2023-06-10T05:22:45;100179.38;;;17.66;76.29
14269;BME280;7218;51.480;7.006;2023-06-10T05:25:11;100179.63;;;17.78;75.94
14269;BME280;7218;51.480;7.006;2023-06-10T05:27:38;100169.91;;;17.79;76.22
14269;BME280;7218;51.480;7.006;2023-06-10T05:30:06;100167.63;;;17.88;75.62
14269;BME280;7218;51.480;7.006;2023-06-10T05:32:33;100177.50;;;17.85;74.80
14269;BME280;7218;51.480;7.006;2023-06-10T05:35:00;100176.34;;;17.90;74.65
14269;BME280;7218;51.480;7.006;2023-06-10T05:37:28;100171.69;;;17.95;73.95
14269;BME280;7218;51.480;7.006;2023-06-10T05:39:54;100169.22;;;17.92;73.88
14269;BME280;7218;51.480;7.006;2023-06-10T05:42:20;100168.81;;;18.00;73.68
14269;BME280;7218;51.480;7.006;2023-06-10T05:44:47;100169.19;;;18.10;73.53
14269;BME280;7218;51.480;7.006;2023-06-10T05:47:13;100177.72;;;18.15;73.45
14269;BME280;7218;51.480;7.006;2023-06-10T05:49:40;100186.56;;;18.14;71.90
14269;BME280;7218;51.480;7.006;2023-06-10T05:52:06;100178.81;;;18.28;72.48
14269;BME280;7218;51.480;7.006;2023-06-10T05:54:34;100180.94;;;18.37;71.92
14269;BME280;7218;51.480;7.006;2023-06-10T05:57:01;100180.03;;;18.38;71.44
14269;BME280;7218;51.480;7.006;2023-06-10T05:59:28;100178.66;;;18.46;71.63
14269;BME280;7218;51.480;7.006;2023-06-10T06:01:55;100174.84;;;18.52;72.14
14269;BME280;7218;51.480;7.006;2023-06-10T06:04:21;100173.78;;;18.56;72.27
14269;BME280;7218;51.480;7.006;2023-06-10T06:06:48;100180.78;;;18.57;71.34
14269;BME280;7218;51.480;7.006;2023-06-10T06:09:14;100186.56;;;18.64;70.30
14269;BME280;7218;51.480;7.006;2023-06-10T06:11:42;100180.34;;;18.65;68.75
14269;BME280;7218;51.480;7.006;2023-06-10T06:14:08;100172.53;;;18.79;69.53
14269;BME280;7218;51.480;7.006;2023-06-10T06:16:35;100180.97;;;18.85;68.40
14269;BME280;7218;51.480;7.006;2023-06-10T06:19:01;100179.88;;;18.89;67.01
14269;BME280;7218;51.480;7.006;2023-06-10T06:21:28;100175.97;;;18.97;66.79
14269;BME280;7218;51.480;7.006;2023-06-10T06:23:54;100172.28;;;18.99;66.78
14269;BME280;7218;51.480;7.006;2023-06-10T06:26:21;100180.72;;;19.06;67.05
14269;BME280;7218;51.480;7.006;2023-06-10T06:28:49;100181.72;;;19.19;67.04
14269;BME280;7218;51.480;7.006;2023-06-10T06:31:15;100176.03;;;19.11;64.18
14269;BME280;7218;51.480;7.006;2023-06-10T06:33:50;100180.81;;;19.20;64.89
14269;BME280;7218;51.480;7.006;2023-06-10T06:36:16;100180.88;;;19.34;65.20
14269;BME280;7218;51.480;7.006;2023-06-10T06:38:43;100178.16;;;19.35;64.05
14269;BME280;7218;51.480;7.006;2023-06-10T06:41:09;100183.50;;;19.34;64.10
14269;BME280;7218;51.480;7.006;2023-06-10T06:43:36;100187.53;;;19.41;63.13
14269;BME280;7218;51.480;7.006;2023-06-10T06:46:04;100185.25;;;19.51;63.44
14269;BME280;7218;51.480;7.006;2023-06-10T06:48:30;100185.63;;;19.59;63.27
14269;BME280;7218;51.480;7.006;2023-06-10T06:50:56;100178.97;;;19.67;62.34
14269;BME280;7218;51.480;7.006;2023-06-10T06:53:24;100183.03;;;19.73;61.49
14269;BME280;7218;51.480;7.006;2023-06-10T06:55:51;100184.59;;;19.77;61.55
14269;BME280;7218;51.480;7.006;2023-06-10T06:58:17;100183.00;;;19.89;61.65
14269;BME280;7218;51.480;7.006;2023-06-10T07:00:44;100188.41;;;19.87;59.87
14269;BME280;7218;51.480;7.006;2023-06-10T07:03:12;100195.78;;;19.96;59.19
14269;BME280;7218;51.480;7.006;2023-06-10T07:05:38;100194.00;;;19.97;58.87
14269;BME280;7218;51.480;7.006;2023-06-10T07:08:05;100193.91;;;20.12;58.65
14269;BME280;7218;51.480;7.006;2023-06-10T07:10:31;100201.75;;;20.14;59.49
14269;BME280;7218;51.480;7.006;2023-06-10T07:12:58;100193.75;;;20.30;59.36
14269;BME280;7218;51.480;7.006;2023-06-10T07:15:25;100194.81;;;20.27;56.95
14269;BME280;7218;51.480;7.006;2023-06-10T07:17:51;100199.19;;;20.42;56.73
14269;BME280;7218;51.480;7.006;2023-06-10T07:20:19;100196.16;;;20.48;56.88
14269;BME280;7218;51.480;7.006;2023-06-10T07:22:45;100193.34;;;20.51;54.78
14269;BME280;7218;51.480;7.006;2023-06-10T07:25:12;100201.84;;;20.56;56.33
14269;BME280;7218;51.480;7.006;2023-06-10T07:27:38;100190.47;;;20.69;55.57
14269;BME280;7218;51.480;7.006;2023-06-10T07:30:07;100187.53;;;20.73;55.40
14269;BME280;7218;51.480;7.006;2023-06-10T07:32:34;100192.38;;;20.67;53.68
14269;BME280;7218;51.480;7.006;2023-06-10T07:35:00;100188.00;;;20.80;53.82
14269;BME280;7218;51.480;7.006;2023-06-10T07:37:28;100186.41;;;20.91;54.85
14269;BME280;7218;51.480;7.006;2023-06-10T07:39:56;100189.09;;;21.04;53.52
14269;BME280;7218;51.480;7.006;2023-06-10T07:42:22;100188.44;;;21.15;54.13
14269;BME280;7218;51.480;7.006;2023-06-10T07:44:49;100189.47;;;21.26;54.40
14269;BME280;7218;51.480;7.006;2023-06-10T07:47:15;100187.06;;;21.36;54.74
14269;BME280;7218;51.480;7.006;2023-06-10T07:49:42;100184.53;;;21.47;53.72
14269;BME280;7218;51.480;7.006;2023-06-10T07:52:08;100190.31;;;21.54;52.70
14269;BME280;7218;51.480;7.006;2023-06-10T07:54:36;100186.50;;;21.58;53.12
14269;BME280;7218;51.480;7.006;2023-06-10T07:57:03;100190.78;;;21.73;53.03
14269;BME280;7218;51.480;7.006;2023-06-10T07:59:29;100191.88;;;21.83;52.72
14269;BME280;7218;51.480;7.006;2023-06-10T08:01:56;100198.66;;;21.87;52.15
14269;BME280;7218;51.480;7.006;2023-06-10T08:04:22;100194.28;;;22.00;51.35
14269;BME280;7218;51.480;7.006;2023-06-10T08:06:49;100188.34;;;22.09;50.99
14269;BME280;7218;51.480;7.006;2023-06-10T08:09:16;100191.13;;;22.20;51.86
14269;BME280;7218;51.480;7.006;2023-06-10T08:11:46;100199.72;;;22.37;50.59
14269;BME280;7218;51.480;7.006;2023-06-10T08:14:13;100195.69;;;22.44;50.03
14269;BME280;7218;51.480;7.006;2023-06-10T08:16:39;100201.94;;;22.43;51.23
14269;BME280;7218;51.480;7.006;2023-06-10T08:19:05;100192.59;;;22.50;50.01
14269;BME280;7218;51.480;7.006;2023-06-10T08:21:34;100197.91;;;22.62;49.99
14269;BME280;7218;51.480;7.006;2023-06-10T08:24:05;100191.19;;;22.69;49.08
14269;BME280;7218;51.480;7.006;2023-06-10T08:26:31;100194.84;;;22.81;49.09
14269;BME280;7218;51.480;7.006;2023-06-10T08:28:59;100198.31;;;22.94;49.94
14269;BME280;7218;51.480;7.006;2023-06-10T08:31:25;100192.00;;;23.08;48.76
14269;BME280;7218;51.480;7.006;2023-06-10T08:33:52;100205.28;;;23.21;48.47
14269;BME280;7218;51.480;7.006;2023-06-10T08:36:18;100200.22;;;23.29;47.81
14269;BME280;7218;51.480;7.006;2023-06-10T08:38:45;100203.31;;;23.35;47.74
14269;BME280;7218;51.480;7.006;2023-06-10T08:41:14;100200.91;;;23.43;47.44
14269;BME280;7218;51.480;7.006;2023-06-10T08:43:45;100196.88;;;23.50;46.12
14269;BME280;7218;51.480;7.006;2023-06-10T08:46:14;100200.56;;;23.61;45.32
14269;BME280;7218;51.480;7.006;2023-06-10T08:48:42;100198.66;;;23.74;45.57
14269;BME280;7218;51.480;7.006;2023-06-10T08:51:10;100202.84;;;23.89;45.82
14269;BME280;7218;51.480;7.006;2023-06-10T08:53:39;100199.97;;;24.03;46.89
14269;BME280;7218;51.480;7.006;2023-06-10T08:56:09;100190.19;;;24.15;45.65
14269;BME280;7218;51.480;7.006;2023-06-10T08:58:36;100192.72;;;24.16;44.48
14269;BME280;7218;51.480;7.006;2023-06-10T09:01:07;100189.91;;;24.30;45.32
14269;BME280;7218;51.480;7.006;2023-06-10T09:03:36;100194.53;;;24.51;44.38
14269;BME280;7218;51.480;7.006;2023-06-10T09:06:04;100196.09;;;24.64;44.02
14269;BME280;7218;51.480;7.006;2023-06-10T09:08:31;100195.84;;;24.67;43.08
14269;BME280;7218;51.480;7.006;2023-06-10T09:10:59;100194.53;;;24.84;42.66
14269;BME280;7218;51.480;7.006;2023-06-10T09:13:26;100190.66;;;24.88;42.50
14269;BME280;7218;51.480;7.006;2023-06-10T09:15:52;100195.16;;;24.99;41.46
14269;BME280;7218;51.480;7.006;2023-06-10T09:18:21;100193.66;;;25.17;42.52
14269;BME280;7218;51.480;7.006;2023-06-10T09:20:49;100193.53;;;25.18;40.08
14269;BME280;7218;51.480;7.006;2023-06-10T09:23:16;100195.44;;;25.39;41.79
14269;BME280;7218;51.480;7.006;2023-06-10T09:25:43;100193.31;;;25.64;41.79
14269;BME280;7218;51.480;7.006;2023-06-10T09:28:13;100187.72;;;25.88;41.10
14269;BME280;7218;51.480;7.006;2023-06-10T09:30:39;100197.00;;;26.05;40.38
14269;BME280;7218;51.480;7.006;2023-06-10T09:33:10;100190.59;;;26.17;41.38
14269;BME280;7218;51.480;7.006;2023-06-10T09:35:45;100193.34;;;26.47;40.35
14269;BME280;7218;51.480;7.006;2023-06-10T09:38:14;100194.81;;;26.61;40.15
14269;BME280;7218;51.480;7.006;2023-06-10T09:40:49;100185.69;;;26.94;39.22
14269;BME280;7218;51.480;7.006;2023-06-10T09:43:16;100180.03;;;26.97;39.32
14269;BME280;7218;51.480;7.006;2023-06-10T09:45:42;100181.47;;;27.11;39.19
14269;BME280;7218;51.480;7.006;2023-06-10T09:48:09;100186.06;;;27.39;38.77
14269;BME280;7218;51.480;7.006;2023-06-10T09:50:42;100178.34;;;27.55;37.95
14269;BME280;7218;51.480;7.006;2023-06-10T09:53:09;100178.91;;;27.68;36.78
14269;BME280;7218;51.480;7.006;2023-06-10T09:55:39;100181.00;;;28.03;37.52
14269;BME280;7218;51.480;7.006;2023-06-10T09:58:05;100178.41;;;28.40;36.87
14269;BME280;7218;51.480;7.006;2023-06-10T10:00:32;100183.97;;;28.66;35.83
14269;BME280;7218;51.480;7.006;2023-06-10T10:02:59;100179.63;;;28.92;35.21
14269;BME280;7218;51.480;7.006;2023-06-10T10:05:26;100178.81;;;29.09;34.90
14269;BME280;7218;51.480;7.006;2023-06-10T10:07:55;100181.44;;;29.19;34.45
14269;BME280;7218;51.480;7.006;2023-06-10T10:10:22;100176.13;;;29.09;35.15
14269;BME280;7218;51.480;7.006;2023-06-10T10:12:52;100176.84;;;29.39;35.06
14269;BME280;7218;51.480;7.006;2023-06-10T10:15:21;100181.03;;;29.41;34.24
14269;BME280;7218;51.480;7.006;2023-06-10T10:17:52;100173.75;;;29.69;33.28
14269;BME280;7218;51.480;7.006;2023-06-10T10:20:20;100177.13;;;29.71;31.62
14269;BME280;7218;51.480;7.006;2023-06-10T10:22:49;100177.19;;;29.79;32.26
14269;BME280;7218;51.480;7.006;2023-06-10T10:25:23;100180.75;;;29.98;32.47
14269;BME280;7218;51.480;7.006;2023-06-10T10:27:55;100186.81;;;30.00;32.10
14269;BME280;7218;51.480;7.006;2023-06-10T10:30:23;100181.31;;;30.09;31.32
14269;BME280;7218;51.480;7.006;2023-06-10T10:32:57;100172.28;;;30.36;30.56
14269;BME280;7218;51.480;7.006;2023-06-10T10:35:25;100167.25;;;30.41;31.17
14269;BME280;7218;51.480;7.006;2023-06-10T10:37:52;100182.53;;;30.15;30.74
14269;BME280;7218;51.480;7.006;2023-06-10T10:40:20;100184.09;;;30.43;31.42
14269;BME280;7218;51.480;7.006;2023-06-10T10:42:48;100175.59;;;30.90;31.48
14269;BME280;7218;51.480;7.006;2023-06-10T10:45:17;100174.53;;;31.16;31.00
14269;BME280;7218;51.480;7.006;2023-06-10T10:47:45;100175.75;;;31.30;31.08
14269;BME280;7218;51.480;7.006;2023-06-10T10:50:16;100173.09;;;31.38;30.70
14269;BME280;7218;51.480;7.006;2023-06-10T10:52:54;100171.50;;;31.19;29.34
14269;BME280;7218;51.480;7.006;2023-06-10T10:55:22;100169.69;;;31.36;30.44
14269;BME280;7218;51.480;7.006;2023-06-10T10:57:58;100168.34;;;31.48;29.58
14269;BME280;7218;51.480;7.006;2023-06-10T11:00:30;100161.34;;;31.88;29.88
14269;BME280;7218;51.480;7.006;2023-06-10T11:03:05;100156.25;;;32.09;28.98
14269;BME280;7218;51.480;7.006;2023-06-10T11:05:36;100157.44;;;31.98;29.47
14269;BME280;7218;51.480;7.006;2023-06-10T11:08:04;100154.59;;;31.92;30.72
14269;BME280;7218;51.480;7.006;2023-06-10T11:10:31;100151.56;;;32.11;28.51
14269;BME280;7218;51.480;7.006;2023-06-10T11:12:58;100151.72;;;32.01;27.49
14269;BME280;7218;51.480;7.006;2023-06-10T11:15:25;100144.31;;;32.28;28.50
14269;BME280;7218;51.480;7.006;2023-06-10T11:18:11;100153.75;;;32.08;28.05
14269;BME280;7218;51.480;7.006;2023-06-10T11:20:45;100144.44;;;32.42;28.01
14269;BME280;7218;51.480;7.006;2023-06-10T11:23:30;100147.94;;;32.43;28.81
14269;BME280;7218;51.480;7.006;2023-06-10T11:26:12;100140.63;;;32.60;28.26
14269;BME280;7218;51.480;7.006;2023-06-10T11:28:39;100137.97;;;32.68;28.03
14269;BME280;7218;51.480;7.006;2023-06-10T11:31:06;100142.19;;;32.93;28.04
14269;BME280;7218;51.480;7.006;2023-06-10T11:33:38;100137.09;;;32.98;27.05
14269;BME280;7218;51.480;7.006;2023-06-10T11:36:06;100135.03;;;33.16;26.51
14269;BME280;7218;51.480;7.006;2023-06-10T11:38:33;100140.22;;;33.18;26.73
14269;BME280;7218;51.480;7.006;2023-06-10T11:41:01;100149.03;;;33.65;26.99
14269;BME280;7218;51.480;7.006;2023-06-10T11:43:29;100135.59;;;33.80;26.34
14269;BME280;7218;51.480;7.006;2023-06-10T11:45:56;100137.00;;;33.91;26.91
14269;BME280;7218;51.480;7.006;2023-06-10T11:48:23;100135.34;;;34.04;26.00
14269;BME280;7218;51.480;7.006;2023-06-10T11:50:52;100138.44;;;34.16;26.61
14269;BME280;7218;51.480;7.006;2023-06-10T11:53:19;100135.88;;;34.52;26.46
14269;BME280;7218;51.480;7.006;2023-06-10T11:55:47;100117.81;;;34.88;25.38
14269;BME280;7218;51.480;7.006;2023-06-10T11:58:14;100125.38;;;34.93;24.89
14269;BME280;7218;51.480;7.006;2023-06-10T12:00:47;100125.91;;;35.18;24.24
14269;BME280;7218;51.480;7.006;2023-06-10T12:03:14;100122.00;;;35.42;23.87
14269;BME280;7218;51.480;7.006;2023-06-10T12:05:40;100131.78;;;35.42;24.38
14269;BME280;7218;51.480;7.006;2023-06-10T12:08:20;100128.75;;;35.52;23.92
14269;BME280;7218;51.480;7.006;2023-06-10T12:10:47;100132.03;;;35.48;22.46
14269;BME280;7218;51.480;7.006;2023-06-10T12:13:13;100130.06;;;35.56;21.12
14269;BME280;7218;51.480;7.006;2023-06-10T12:15:40;100129.34;;;35.90;21.84
14269;BME280;7218;51.480;7.006;2023-06-10T12:18:07;100109.91;;;35.87;21.59
14269;BME280;7218;51.480;7.006;2023-06-10T12:20:35;100117.38;;;36.40;23.72
14269;BME280;7218;51.480;7.006;2023-06-10T12:23:09;100117.00;;;36.50;22.25
14269;BME280;7218;51.480;7.006;2023-06-10T12:25:37;100118.97;;;36.28;22.61
14269;BME280;7218;51.480;7.006;2023-06-10T12:28:04;100115.91;;;35.61;22.15
14269;BME280;7218;51.480;7.006;2023-06-10T12:30:32;100121.66;;;36.56;23.84
14269;BME280;7218;51.480;7.006;2023-06-10T12:32:58;100120.50;;;36.78;21.68
14269;BME280;7218;51.480;7.006;2023-06-10T12:35:26;100115.03;;;37.32;21.92
14269;BME280;7218;51.480;7.006;2023-06-10T12:37:57;100111.09;;;37.35;22.03
14269;BME280;7218;51.480;7.006;2023-06-10T12:40:28;100112.38;;;37.78;21.34
14269;BME280;7218;51.480;7.006;2023-06-10T12:42:56;100115.28;;;37.97;20.88
14269;BME280;7218;51.480;7.006;2023-06-10T12:45:29;100112.81;;;38.08;20.86
14269;BME280;7218;51.480;7.006;2023-06-10T12:48:06;100111.97;;;37.88;20.69
14269;BME280;7218;51.480;7.006;2023-06-10T12:50:34;100108.19;;;37.96;22.23
14269;BME280;7218;51.480;7.006;2023-06-10T12:53:01;100102.75;;;38.15;21.58
14269;BME280;7218;51.480;7.006;2023-06-10T12:55:27;100110.31;;;38.00;19.93
14269;BME280;7218;51.480;7.006;2023-06-10T12:57:56;100107.78;;;38.05;20.01
14269;BME280;7218;51.480;7.006;2023-06-10T13:00:22;100106.06;;;38.30;20.41
14269;BME280;7218;51.480;7.006;2023-06-10T13:02:51;100098.88;;;38.43;19.91